Hovedside
METAR-TAF:

METAR-TAF

Lufthavner :

Trollhättan-Vänersborg, Sverige

breddegrad: 58-19N, lengdegrad: 012-21E, høyde over havet: 41 m

Gjeldene værobservasjon

Denne rapporten ble laget for 28 minutter siden, klokken 18:20 UTC
Vind 9 kt fra Nordøst
Temperatur 2°C
Luftfuktighet 87%
Trykk 1036 hPa
Sikt 10 km eller mer
Få skyer i en høyde av 800 ft
Overskyet i en høyde av 3200 ft
lett snø

METAR: ESGT 191820Z 05009KT 9999 -SN FEW008 OVC032 02/00 Q1036

Tid: 19:48 (18:48 UTC)

Varsel

Denne rapporten ble laget for 1 time og 18 minutter siden, klokken 17:30 UTC
Varsel gyldig fra 19. klokken 18 UTC til 19. klokken 22 UTC
Vind 6 kt fra Øst-nordøst
Sikt 10 km eller mer
Overskyet i en høyde av 2000 ft

TAF: ESGT 191730Z 1918/1922 06006KT 9999 OVC020

Værobservasjoner og værvarsel for over 4000 flyplasser (METAR- og TAF-rapporter).

Tilgjengelige stasjoner er representert av de røde og gule prikkene på kartet.

Hold musepekeren over prikken for å se navnet på stasjonen.

Klikk så for å se værobservasjoner og -varsler.

For å forandre kartet kan du klikke på den grønne knappen med svart kryss for å zoome inn, på den grønne knappen med strek for å zoome ut, eller på de grønne pilene for å se tilstøtende kart.


METAR-TAF: